createdAt,value
2023-05-16T00:00:15.849Z,10.55
2023-05-16T00:02:43.768Z,8.85
2023-05-16T00:05:14.560Z,9.98
2023-05-16T00:07:43.853Z,8.73
2023-05-16T00:10:12.086Z,8.20
2023-05-16T00:12:40.757Z,6.85
2023-05-16T00:15:14.005Z,6.32
2023-05-16T00:17:43.712Z,6.05
2023-05-16T00:20:14.194Z,5.65
2023-05-16T00:22:43.220Z,7.65
2023-05-16T00:25:11.090Z,5.72
2023-05-16T00:27:39.663Z,5.75
2023-05-16T00:30:10.823Z,6.72
2023-05-16T00:32:38.529Z,6.95
2023-05-16T00:35:10.384Z,7.90
2023-05-16T00:37:39.862Z,6.18
2023-05-16T00:40:08.712Z,6.85
2023-05-16T00:42:37.035Z,6.63
2023-05-16T00:45:06.263Z,5.70
2023-05-16T00:47:33.879Z,5.72
2023-05-16T00:50:02.690Z,6.32
2023-05-16T00:52:30.890Z,5.00
2023-05-16T00:55:00.693Z,5.18
2023-05-16T00:57:29.190Z,5.35
2023-05-16T00:59:58.540Z,4.65
2023-05-16T01:02:28.392Z,4.40
2023-05-16T01:07:49.168Z,4.32
2023-05-16T01:10:19.652Z,3.58
2023-05-16T01:12:59.727Z,2.75
2023-05-16T01:15:32.654Z,4.82
2023-05-16T01:18:07.829Z,3.05
2023-05-16T01:20:44.656Z,3.17
2023-05-16T01:23:28.837Z,2.47
2023-05-16T01:26:13.660Z,4.35
2023-05-16T01:28:46.830Z,4.43
2023-05-16T01:31:14.610Z,5.03
2023-05-16T01:33:43.017Z,4.82
2023-05-16T01:36:18.334Z,4.35
2023-05-16T01:38:55.900Z,5.43
2023-05-16T01:44:27.097Z,5.05
2023-05-16T01:47:00.348Z,5.32
2023-05-16T01:49:32.417Z,6.50
2023-05-16T01:52:02.785Z,7.68
2023-05-16T01:54:33.112Z,5.25
2023-05-16T01:57:05.958Z,5.75
2023-05-16T01:59:35.499Z,8.40
2023-05-16T02:02:04.052Z,6.97
2023-05-16T02:04:32.772Z,7.38
2023-05-16T02:07:01.854Z,6.50
2023-05-16T02:09:29.763Z,7.00
2023-05-16T02:11:57.308Z,8.70
2023-05-16T02:14:27.032Z,6.32
2023-05-16T02:16:57.151Z,7.43
2023-05-16T02:19:26.648Z,6.82
2023-05-16T02:21:55.612Z,6.68
2023-05-16T02:24:23.423Z,9.48
2023-05-16T02:26:51.130Z,6.32
2023-05-16T02:29:19.562Z,9.80
2023-05-16T02:31:48.778Z,7.63
2023-05-16T02:34:16.522Z,9.45
2023-05-16T02:36:44.112Z,8.68
2023-05-16T02:39:12.063Z,12.00
2023-05-16T02:41:39.717Z,7.85
2023-05-16T02:44:07.443Z,10.98
2023-05-16T02:46:36.866Z,7.47
2023-05-16T02:49:06.740Z,9.93
2023-05-16T02:51:34.658Z,9.93
2023-05-16T02:54:03.122Z,7.32
2023-05-16T02:56:31.037Z,10.13
2023-05-16T02:59:02.301Z,9.73
2023-05-16T03:01:30.776Z,12.57
2023-05-16T03:04:01.786Z,9.48
2023-05-16T03:09:04.665Z,11.60
2023-05-16T03:11:34.200Z,10.38
2023-05-16T03:14:02.534Z,11.77
2023-05-16T03:16:32.108Z,10.68
2023-05-16T03:19:02.682Z,10.40
2023-05-16T03:21:32.582Z,10.85
2023-05-16T03:24:00.364Z,10.10
2023-05-16T03:26:28.644Z,13.68
2023-05-16T03:28:56.770Z,11.52
2023-05-16T03:31:24.692Z,10.27
2023-05-16T03:33:52.386Z,11.07
2023-05-16T03:36:24.176Z,12.93
2023-05-16T03:38:54.719Z,14.65
2023-05-16T03:41:22.350Z,12.25
2023-05-16T03:46:44.242Z,12.02
2023-05-16T03:49:12.075Z,11.65
2023-05-16T03:51:39.803Z,12.25
2023-05-16T03:54:08.854Z,11.45
2023-05-16T03:56:36.650Z,14.07
2023-05-16T03:59:05.085Z,13.93
2023-05-16T04:01:59.678Z,15.98
2023-05-16T04:04:27.399Z,11.32
2023-05-16T04:06:54.958Z,13.00
2023-05-16T04:09:24.140Z,12.88
2023-05-16T04:11:53.088Z,13.23
2023-05-16T04:14:20.780Z,9.68
2023-05-16T04:16:48.376Z,11.10
2023-05-16T04:19:16.320Z,9.43
2023-05-16T04:21:44.027Z,11.18
2023-05-16T04:24:11.751Z,8.05
2023-05-16T04:26:41.683Z,14.52
2023-05-16T04:29:09.358Z,7.32
2023-05-16T04:31:37.994Z,15.63
2023-05-16T04:34:05.827Z,10.68
2023-05-16T04:36:35.332Z,8.38
2023-05-16T04:39:04.643Z,8.75
2023-05-16T04:41:33.637Z,12.38
2023-05-16T04:44:04.659Z,11.40
2023-05-16T04:46:34.791Z,10.20
2023-05-16T04:49:02.416Z,8.68
2023-05-16T04:51:29.977Z,8.15
2023-05-16T04:53:58.075Z,14.30
2023-05-16T04:56:26.734Z,12.80
2023-05-16T04:58:54.657Z,12.68
2023-05-16T05:01:23.549Z,14.77
2023-05-16T05:03:51.502Z,10.38
2023-05-16T05:06:19.036Z,13.27
2023-05-16T05:08:46.591Z,11.45
2023-05-16T05:11:14.282Z,12.18
2023-05-16T05:13:41.917Z,10.38
2023-05-16T05:16:09.607Z,10.27
2023-05-16T05:18:38.646Z,10.98
2023-05-16T05:21:06.401Z,10.00
2023-05-16T05:23:34.860Z,12.38
2023-05-16T05:26:02.472Z,10.35
2023-05-16T05:28:30.057Z,11.77
2023-05-16T05:30:57.614Z,11.65
2023-05-16T05:33:29.295Z,11.35
2023-05-16T05:35:58.828Z,10.52
2023-05-16T05:38:26.757Z,12.35
2023-05-16T05:40:54.330Z,9.73
2023-05-16T05:43:21.987Z,8.55
2023-05-16T05:45:49.694Z,8.52
2023-05-16T05:48:17.428Z,8.48
2023-05-16T05:54:31.295Z,8.68
2023-05-16T05:56:59.245Z,8.20
2023-05-16T05:59:27.382Z,8.07
2023-05-16T06:01:54.994Z,7.22
2023-05-16T06:04:22.838Z,11.77
2023-05-16T06:06:50.497Z,12.25
2023-05-16T06:09:18.769Z,8.02
2023-05-16T06:11:49.385Z,9.00
2023-05-16T06:14:17.102Z,8.98
2023-05-16T06:16:44.720Z,9.20
2023-05-16T06:19:16.000Z,11.02
2023-05-16T06:21:44.160Z,11.60
2023-05-16T06:24:12.778Z,9.02
2023-05-16T06:26:40.416Z,12.73
2023-05-16T06:29:09.527Z,8.38
2023-05-16T06:31:37.138Z,9.27
2023-05-16T06:34:05.656Z,16.15
2023-05-16T06:36:35.046Z,10.88
2023-05-16T06:39:02.638Z,13.55
2023-05-16T06:41:31.061Z,6.90
2023-05-16T06:43:58.835Z,6.78
2023-05-16T06:46:28.615Z,8.32
2023-05-16T06:48:57.173Z,6.60
2023-05-16T06:51:24.895Z,8.85
2023-05-16T06:53:52.697Z,8.43
2023-05-16T06:56:22.527Z,7.72
2023-05-16T06:58:52.728Z,8.65
2023-05-16T07:01:21.197Z,9.07
2023-05-16T07:03:50.914Z,12.52
2023-05-16T07:06:18.609Z,8.32
2023-05-16T07:08:47.824Z,7.40
2023-05-16T07:11:19.207Z,8.25
2023-05-16T07:13:46.823Z,8.52
2023-05-16T07:16:14.534Z,5.85
2023-05-16T07:18:43.477Z,8.40
2023-05-16T07:21:12.794Z,7.50
2023-05-16T07:23:44.320Z,7.93
2023-05-16T07:26:12.054Z,7.70
2023-05-16T07:28:39.705Z,8.23
2023-05-16T07:31:08.304Z,9.63
2023-05-16T07:33:35.974Z,6.65
2023-05-16T07:36:15.986Z,9.13
2023-05-16T07:38:46.621Z,8.03
2023-05-16T07:41:14.331Z,10.00
2023-05-16T07:43:41.997Z,7.55
2023-05-16T07:46:09.916Z,7.03
2023-05-16T07:48:38.200Z,5.15
2023-05-16T07:51:06.051Z,7.78
2023-05-16T07:53:33.640Z,5.95
2023-05-16T07:56:02.794Z,6.90
2023-05-16T07:58:30.460Z,5.82
2023-05-16T08:00:58.343Z,7.55
2023-05-16T08:03:26.092Z,5.88
2023-05-16T08:05:55.745Z,5.10
2023-05-16T08:08:23.400Z,7.30
2023-05-16T08:10:51.010Z,8.57
2023-05-16T08:13:19.956Z,6.38
2023-05-16T08:15:48.211Z,7.10
2023-05-16T08:18:16.799Z,5.78
2023-05-16T08:20:46.723Z,7.55
2023-05-16T08:23:16.490Z,5.45
2023-05-16T08:25:44.236Z,6.80
2023-05-16T08:28:11.876Z,9.18
2023-05-16T08:30:42.541Z,4.13
2023-05-16T08:33:11.778Z,5.88
2023-05-16T08:35:43.694Z,5.05
2023-05-16T08:38:12.778Z,5.60
2023-05-16T08:40:44.752Z,6.03
2023-05-16T08:43:13.221Z,5.85
2023-05-16T08:45:42.800Z,5.30
2023-05-16T08:48:12.343Z,4.78
2023-05-16T08:50:42.640Z,5.85
2023-05-16T08:53:11.500Z,3.70
2023-05-16T08:55:40.467Z,5.70
2023-05-16T08:58:08.730Z,5.50
2023-05-16T09:00:36.774Z,5.43
2023-05-16T09:03:06.933Z,5.90
2023-05-16T09:05:34.924Z,5.13
2023-05-16T09:08:02.719Z,6.82
2023-05-16T09:10:30.521Z,6.05
2023-05-16T09:13:00.104Z,9.00
2023-05-16T09:15:33.460Z,5.82
2023-05-16T09:18:03.832Z,6.18
2023-05-16T09:20:33.076Z,4.72
2023-05-16T09:23:01.360Z,5.88
2023-05-16T09:25:32.237Z,4.72
2023-05-16T09:28:03.655Z,8.07
2023-05-16T09:30:34.864Z,5.00
2023-05-16T09:33:03.430Z,7.13
2023-05-16T09:38:04.677Z,4.32
2023-05-16T09:40:33.293Z,6.13
2023-05-16T09:43:05.889Z,8.23
2023-05-16T09:45:34.135Z,4.50
2023-05-16T09:48:05.364Z,5.10
2023-05-16T09:50:36.813Z,5.07
2023-05-16T09:56:08.716Z,6.60
2023-05-16T09:58:39.897Z,5.35
2023-05-16T10:01:08.577Z,9.02
2023-05-16T10:03:37.691Z,5.22
2023-05-16T10:06:09.303Z,7.30
2023-05-16T10:08:38.725Z,5.05
2023-05-16T10:11:08.702Z,5.65
2023-05-16T10:13:37.627Z,3.72
2023-05-16T10:16:08.694Z,4.72
2023-05-16T10:18:40.793Z,4.43
2023-05-16T10:23:43.328Z,5.00
2023-05-16T10:26:17.825Z,3.38
2023-05-16T10:28:48.052Z,15.93
2023-05-16T10:31:16.773Z,6.60
2023-05-16T10:33:46.896Z,5.22
2023-05-16T10:36:18.673Z,7.40
2023-05-16T10:38:47.496Z,4.55
2023-05-16T10:41:15.863Z,5.57
2023-05-16T10:43:46.210Z,4.97
2023-05-16T10:46:15.425Z,4.82
2023-05-16T10:48:43.822Z,5.95
2023-05-16T10:51:36.984Z,5.55
2023-05-16T10:54:08.841Z,6.05
2023-05-16T10:59:29.866Z,2.47
2023-05-16T11:01:58.832Z,4.13
2023-05-16T11:04:46.884Z,3.67
2023-05-16T11:07:18.428Z,4.25
2023-05-16T11:09:46.927Z,5.18
2023-05-16T11:12:15.568Z,11.13
2023-05-16T11:14:43.621Z,6.35
2023-05-16T11:17:41.454Z,3.53
2023-05-16T11:20:26.428Z,4.10
2023-05-16T11:23:22.716Z,3.47
2023-05-16T11:25:57.669Z,2.92
2023-05-16T11:28:27.797Z,4.47
2023-05-16T11:30:59.959Z,4.10
2023-05-16T11:33:29.793Z,3.90
2023-05-16T11:38:43.272Z,4.70
2023-05-16T11:41:11.544Z,3.92
2023-05-16T11:43:42.835Z,3.53
2023-05-16T11:46:13.011Z,2.70
2023-05-16T11:48:41.955Z,2.65
2023-05-16T11:51:10.701Z,2.88
2023-05-16T11:53:39.753Z,3.42
2023-05-16T11:56:09.670Z,5.55
2023-05-16T11:58:38.354Z,5.38
2023-05-16T12:01:06.634Z,4.90
2023-05-16T12:03:36.168Z,3.70
2023-05-16T12:06:04.039Z,5.00
2023-05-16T12:08:33.601Z,5.32
2023-05-16T12:11:02.727Z,4.65
2023-05-16T12:13:30.777Z,6.05
2023-05-16T12:15:58.956Z,4.50
2023-05-16T12:18:27.724Z,3.75
2023-05-16T12:20:56.476Z,3.15
2023-05-16T12:23:25.751Z,3.28
2023-05-16T12:25:55.455Z,4.55
2023-05-16T12:28:26.751Z,2.97
2023-05-16T12:30:54.385Z,3.92
2023-05-16T12:33:22.071Z,3.72
2023-05-16T12:35:51.762Z,2.65
2023-05-16T12:38:22.105Z,4.60
2023-05-16T12:40:51.387Z,2.92
2023-05-16T12:43:23.845Z,5.28
2023-05-16T12:46:20.988Z,3.38
2023-05-16T12:51:18.761Z,4.00
2023-05-16T12:54:01.553Z,5.50
2023-05-16T12:56:40.734Z,4.60
2023-05-16T12:59:08.833Z,3.08
2023-05-16T13:01:38.131Z,3.50
2023-05-16T13:04:06.283Z,5.00
2023-05-16T13:06:48.864Z,5.22
2023-05-16T13:09:22.369Z,2.80
2023-05-16T13:11:50.510Z,4.10
2023-05-16T13:14:18.760Z,4.32
2023-05-16T13:16:48.857Z,4.75
2023-05-16T13:19:17.470Z,6.05
2023-05-16T13:21:45.277Z,4.50
2023-05-16T13:24:13.146Z,4.13
2023-05-16T13:26:41.316Z,3.88
2023-05-16T13:29:11.240Z,4.03
2023-05-16T13:31:39.824Z,3.65
2023-05-16T13:34:09.519Z,5.18
2023-05-16T13:36:52.412Z,4.55
2023-05-16T13:39:23.124Z,5.65
2023-05-16T13:41:51.396Z,3.20
2023-05-16T13:44:19.606Z,4.15
2023-05-16T13:46:48.274Z,3.25
2023-05-16T13:49:17.282Z,3.17
2023-05-16T13:51:46.909Z,4.30
2023-05-16T13:54:14.721Z,2.50
2023-05-16T13:56:44.527Z,3.38
2023-05-16T13:59:20.615Z,4.88
2023-05-16T14:01:51.762Z,4.18
2023-05-16T14:04:21.795Z,3.28
2023-05-16T14:06:49.990Z,4.22
2023-05-16T14:09:18.664Z,4.78
2023-05-16T14:11:46.267Z,3.63
2023-05-16T14:14:14.739Z,4.85
2023-05-16T14:16:45.934Z,2.78
2023-05-16T14:19:17.322Z,3.72
2023-05-16T14:21:47.422Z,3.95
2023-05-16T14:24:15.010Z,3.97
2023-05-16T14:26:42.616Z,5.80
2023-05-16T14:29:12.839Z,3.45
2023-05-16T14:31:44.790Z,4.75
2023-05-16T14:34:13.257Z,3.88
2023-05-16T14:36:44.748Z,4.13
2023-05-16T14:39:14.136Z,5.07
2023-05-16T14:41:43.759Z,4.00
2023-05-16T14:44:13.336Z,4.18
2023-05-16T14:46:41.002Z,2.88
2023-05-16T14:49:09.065Z,4.70
2023-05-16T14:51:36.953Z,5.07
2023-05-16T14:54:05.788Z,6.10
2023-05-16T14:56:34.725Z,6.07
2023-05-16T14:59:06.752Z,6.82
2023-05-16T15:01:34.438Z,6.88
2023-05-16T15:04:05.906Z,5.03
2023-05-16T15:06:35.214Z,6.45
2023-05-16T15:09:03.661Z,3.63
2023-05-16T15:11:32.147Z,5.78
2023-05-16T15:14:01.602Z,3.92
2023-05-16T15:16:30.935Z,5.07
2023-05-16T15:18:58.719Z,5.65
2023-05-16T15:21:32.323Z,5.43
2023-05-16T15:24:00.713Z,5.55
2023-05-16T15:26:29.869Z,4.68
2023-05-16T15:28:58.131Z,5.03
2023-05-16T15:31:28.792Z,3.67
2023-05-16T15:33:56.446Z,3.63
2023-05-16T15:36:24.278Z,4.50
2023-05-16T15:38:52.905Z,3.78
2023-05-16T15:41:37.335Z,3.67
2023-05-16T15:44:09.658Z,3.83
2023-05-16T15:46:39.801Z,5.53
2023-05-16T15:49:09.269Z,4.15
2023-05-16T15:51:38.872Z,7.10
2023-05-16T15:54:06.548Z,5.38
2023-05-16T15:56:34.344Z,3.95
2023-05-16T15:59:02.201Z,5.65
2023-05-16T16:01:30.403Z,3.67
2023-05-16T16:03:59.544Z,5.18
2023-05-16T16:06:27.721Z,4.65
2023-05-16T16:08:55.456Z,5.25
2023-05-16T16:11:23.759Z,6.47
2023-05-16T16:13:51.357Z,5.30
2023-05-16T16:16:19.938Z,4.82
2023-05-16T16:18:48.300Z,4.75
2023-05-16T16:21:17.622Z,5.05
2023-05-16T16:23:46.281Z,5.05
2023-05-16T16:26:14.090Z,6.07
2023-05-16T16:28:41.685Z,6.45
2023-05-16T16:31:09.405Z,4.82
2023-05-16T16:33:36.988Z,5.75
2023-05-16T16:36:06.773Z,5.40
2023-05-16T16:38:36.485Z,7.03
2023-05-16T16:41:05.863Z,5.35
2023-05-16T16:43:33.906Z,6.20
2023-05-16T16:46:01.850Z,4.20
2023-05-16T16:48:30.368Z,5.13
2023-05-16T16:50:57.968Z,4.10
2023-05-16T16:53:26.411Z,5.05
2023-05-16T16:55:55.586Z,5.07
2023-05-16T16:58:23.202Z,6.13
2023-05-16T17:00:51.325Z,5.97
2023-05-16T17:03:19.289Z,8.02
2023-05-16T17:05:47.827Z,5.25
2023-05-16T17:08:15.912Z,6.53
2023-05-16T17:10:43.624Z,6.53
2023-05-16T17:13:14.797Z,10.05
2023-05-16T17:15:44.036Z,6.88
2023-05-16T17:18:12.860Z,6.85
2023-05-16T17:20:40.732Z,5.75
2023-05-16T17:23:09.139Z,5.47
2023-05-16T17:25:36.895Z,4.28
2023-05-16T17:28:04.939Z,5.97
2023-05-16T17:30:33.879Z,6.20
2023-05-16T17:33:01.801Z,7.13
2023-05-16T17:35:31.474Z,7.38
2023-05-16T17:37:59.340Z,5.65
2023-05-16T17:40:26.914Z,6.47
2023-05-16T17:42:54.748Z,6.30
2023-05-16T17:45:22.718Z,7.70
2023-05-16T17:47:51.793Z,6.20
2023-05-16T17:50:21.804Z,6.43
2023-05-16T17:52:50.561Z,8.43
2023-05-16T17:55:18.437Z,6.15
2023-05-16T17:57:46.677Z,6.32
2023-05-16T18:00:15.883Z,7.30
2023-05-16T18:02:44.755Z,7.35
2023-05-16T18:05:16.298Z,7.70
2023-05-16T18:07:43.944Z,8.32
2023-05-16T18:10:13.631Z,6.47
2023-05-16T18:12:41.702Z,6.97
2023-05-16T18:15:10.703Z,8.45
2023-05-16T18:17:40.548Z,5.63
2023-05-16T18:20:12.430Z,6.53
2023-05-16T18:22:43.862Z,8.15
2023-05-16T18:28:04.546Z,6.47
2023-05-16T18:30:32.291Z,5.28
2023-05-16T18:33:00.820Z,7.60
2023-05-16T18:35:28.786Z,8.27
2023-05-16T18:37:58.020Z,5.13
2023-05-16T18:40:26.132Z,5.63
2023-05-16T18:42:54.189Z,6.35
2023-05-16T18:45:23.755Z,6.35
2023-05-16T18:47:51.476Z,7.63
2023-05-16T18:50:19.248Z,8.63
2023-05-16T18:52:46.862Z,6.80
2023-05-16T18:55:16.042Z,6.57
2023-05-16T18:57:45.178Z,8.40
2023-05-16T19:00:13.809Z,7.43
2023-05-16T19:02:42.806Z,7.22
2023-05-16T19:05:11.360Z,6.07
2023-05-16T19:07:39.371Z,6.82
2023-05-16T19:10:08.466Z,6.82
2023-05-16T19:12:37.594Z,6.30
2023-05-16T19:15:06.764Z,6.55
2023-05-16T19:17:34.467Z,6.95
2023-05-16T19:20:03.107Z,5.85
2023-05-16T19:22:30.958Z,5.95
2023-05-16T19:24:58.628Z,5.72
2023-05-16T19:27:28.726Z,5.72
2023-05-16T19:29:59.526Z,6.65
2023-05-16T19:32:27.220Z,5.93
2023-05-16T19:34:54.979Z,7.25
2023-05-16T19:37:22.812Z,5.05
2023-05-16T19:39:50.523Z,6.82
2023-05-16T19:42:18.385Z,6.75
2023-05-16T19:44:47.877Z,7.63
2023-05-16T19:47:17.822Z,6.88
2023-05-16T19:49:45.867Z,7.10
2023-05-16T19:52:14.495Z,6.20
2023-05-16T19:54:42.307Z,5.20
2023-05-16T19:57:09.926Z,5.57
2023-05-16T19:59:37.513Z,5.45
2023-05-16T20:02:05.228Z,8.70
2023-05-16T20:04:34.312Z,6.68
2023-05-16T20:07:02.408Z,8.90
2023-05-16T20:09:30.315Z,6.90
2023-05-16T20:11:58.775Z,6.72
2023-05-16T20:14:27.607Z,6.20
2023-05-16T20:16:56.480Z,7.38
2023-05-16T20:19:25.100Z,5.53
2023-05-16T20:21:54.270Z,7.30
2023-05-16T20:24:21.931Z,6.05
2023-05-16T20:26:49.513Z,6.70
2023-05-16T20:29:17.874Z,6.28
2023-05-16T20:31:46.278Z,6.40
2023-05-16T20:34:13.955Z,5.57
2023-05-16T20:36:41.696Z,6.00
2023-05-16T20:39:10.721Z,7.50
2023-05-16T20:41:38.396Z,6.65
2023-05-16T20:44:07.793Z,4.95
2023-05-16T20:46:36.837Z,5.70
2023-05-16T20:49:04.935Z,6.65
2023-05-16T20:51:34.195Z,6.10
2023-05-16T20:54:03.800Z,6.22
2023-05-16T20:56:32.881Z,6.75
2023-05-16T20:59:00.776Z,6.38
2023-05-16T21:01:29.853Z,6.25
2023-05-16T21:03:59.310Z,6.05
2023-05-16T21:06:26.970Z,6.40
2023-05-16T21:08:54.599Z,7.00
2023-05-16T21:11:24.155Z,6.13
2023-05-16T21:13:53.104Z,7.32
2023-05-16T21:16:20.984Z,5.50
2023-05-16T21:18:49.141Z,6.93
2023-05-16T21:21:16.938Z,6.88
2023-05-16T21:23:44.673Z,6.35
2023-05-16T21:26:12.395Z,6.05
2023-05-16T21:28:54.069Z,5.97
2023-05-16T21:31:24.398Z,6.88
2023-05-16T21:33:52.993Z,7.68
2023-05-16T21:36:20.807Z,6.95
2023-05-16T21:38:48.907Z,4.75
2023-05-16T21:41:18.025Z,4.07
2023-05-16T21:43:45.851Z,6.05
2023-05-16T21:46:15.868Z,7.20
2023-05-16T21:48:44.978Z,5.75
2023-05-16T21:51:12.794Z,5.75
2023-05-16T21:53:40.536Z,5.20
2023-05-16T21:56:08.445Z,5.68
2023-05-16T21:58:36.042Z,7.32
2023-05-16T22:01:03.651Z,5.60
2023-05-16T22:03:31.570Z,6.22
2023-05-16T22:06:01.041Z,6.75
2023-05-16T22:08:28.659Z,7.60
2023-05-16T22:10:56.892Z,6.35
2023-05-16T22:13:24.703Z,6.85
2023-05-16T22:16:03.881Z,7.18
2023-05-16T22:18:34.120Z,7.10
2023-05-16T22:21:03.827Z,7.45
2023-05-16T22:23:31.628Z,6.15
2023-05-16T22:25:59.261Z,8.05
2023-05-16T22:28:27.139Z,6.35
2023-05-16T22:30:55.781Z,6.80
2023-05-16T22:33:23.977Z,7.03
2023-05-16T22:35:51.827Z,7.43
2023-05-16T22:38:20.806Z,6.55
2023-05-16T22:40:48.437Z,5.47
2023-05-16T22:43:16.141Z,7.05
2023-05-16T22:45:43.895Z,5.15
2023-05-16T22:48:12.333Z,8.05
2023-05-16T22:50:40.800Z,7.72
2023-05-16T22:53:08.512Z,5.80
2023-05-16T22:55:37.531Z,5.13
2023-05-16T22:58:06.798Z,5.82
2023-05-16T23:00:34.385Z,6.55
2023-05-16T23:03:02.363Z,5.63
2023-05-16T23:05:30.222Z,6.10
2023-05-16T23:07:58.896Z,5.45
2023-05-16T23:10:26.483Z,6.72
2023-05-16T23:12:56.093Z,5.05
2023-05-16T23:15:24.789Z,5.55
2023-05-16T23:17:53.474Z,5.88
2023-05-16T23:20:21.788Z,5.20
2023-05-16T23:22:49.774Z,6.80
2023-05-16T23:25:19.300Z,8.00
2023-05-16T23:27:48.308Z,7.63
2023-05-16T23:30:17.663Z,4.97
2023-05-16T23:32:46.904Z,7.38
2023-05-16T23:35:14.800Z,6.28
2023-05-16T23:37:44.422Z,6.35
2023-05-16T23:40:12.844Z,6.00
2023-05-16T23:42:41.240Z,6.60
2023-05-16T23:45:10.174Z,5.90
2023-05-16T23:47:39.608Z,6.55
2023-05-16T23:50:08.207Z,5.50
2023-05-16T23:52:36.812Z,5.57
2023-05-16T23:55:07.760Z,7.25
2023-05-16T23:57:35.428Z,6.88
